Time;durP1;ratioP1;P1;durP2;ratioP2;P2;SDS_P1;SDS_P2;PMS_P1;PMS_P2;Temp;Humidity;BMP_temperature;BMP_pressure;BME280_temperature;BME280_humidity;BME280_pressure;Samples;Min_cycle;Max_cycle;Signal;HPM_P1;HPM_P2
2022/08/27 00:00:14;;;;;;;16.32;5.97;;;24.40;73.20;;;;;;1864837;73;21090;-61
2022/08/27 00:02:44;;;;;;;13.93;5.58;;;24.30;73.50;;;;;;1867185;77;21101;-61
2022/08/27 00:05:16;;;;;;;11.15;4.60;;;24.30;73.60;;;;;;1867063;77;21038;-61
2022/08/27 00:07:46;;;;;;;15.23;4.55;;;24.20;73.80;;;;;;1867116;77;21073;-60
2022/08/27 00:10:19;;;;;;;17.23;5.20;;;24.10;74.00;;;;;;1867199;77;21047;-61
2022/08/27 00:12:49;;;;;;;13.65;4.97;;;24.00;74.50;;;;;;1867097;77;21039;-61
2022/08/27 00:15:18;;;;;;;10.82;3.83;;;24.00;74.80;;;;;;1867220;77;21007;-61
2022/08/27 00:17:48;;;;;;;14.43;4.87;;;24.00;75.10;;;;;;1867069;77;21031;-61
2022/08/27 00:20:20;;;;;;;7.78;3.58;;;24.10;75.30;;;;;;1867100;77;21113;-61
2022/08/27 00:22:49;;;;;;;10.28;4.25;;;24.10;75.30;;;;;;1867064;77;21038;-61
2022/08/27 00:25:19;;;;;;;9.65;4.70;;;24.10;75.20;;;;;;1867135;77;21023;-61
2022/08/27 00:27:48;;;;;;;14.75;5.78;;;24.20;75.10;;;;;;1867131;77;21095;-61
2022/08/27 00:30:20;;;;;;;11.65;5.45;;;24.20;75.00;;;;;;1867079;77;21081;-61
2022/08/27 00:32:49;;;;;;;12.35;4.80;;;24.20;74.90;;;;;;1867067;77;21043;-61
2022/08/27 00:35:19;;;;;;;8.65;4.55;;;24.30;74.80;;;;;;1867215;77;21109;-61
2022/08/27 00:37:49;;;;;;;8.85;4.40;;;24.30;74.80;;;;;;1867125;77;21035;-61
2022/08/27 00:40:20;;;;;;;12.90;5.28;;;24.20;74.90;;;;;;1867230;77;21090;-61
2022/08/27 00:42:49;;;;;;;9.75;4.28;;;24.20;75.00;;;;;;1867041;77;21232;-61
2022/08/27 00:45:21;;;;;;;7.28;4.87;;;24.20;75.50;;;;;;1867219;77;21442;-61
2022/08/27 00:47:56;;;;;;;11.45;4.83;;;24.20;75.50;;;;;;1867148;77;21144;-61
2022/08/27 00:50:35;;;;;;;12.40;4.37;;;24.20;75.60;;;;;;1867211;77;21117;-61
2022/08/27 00:53:09;;;;;;;17.55;5.20;;;24.20;75.50;;;;;;1873594;76;21065;-61
2022/08/27 00:55:44;;;;;;;12.03;4.45;;;24.30;75.40;;;;;;1866628;75;21506;-61
2022/08/27 00:58:14;;;;;;;;;;;24.30;75.10;;;;;;1877582;76;21526;-61
2022/08/27 01:00:45;;;;;;;10.45;4.70;;;24.20;74.80;;;;;;1865270;77;20105;-61
2022/08/27 01:03:15;;;;;;;12.58;4.92;;;24.10;75.10;;;;;;1865927;76;21015;-61
2022/08/27 01:05:46;;;;;;;12.55;5.42;;;24.10;75.30;;;;;;1865960;75;21118;-61
2022/08/27 01:08:21;;;;;;;6.55;4.28;;;24.20;75.40;;;;;;1865921;76;21109;-61
2022/08/27 01:10:50;;;;;;;;;;;24.20;75.50;;;;;;1867703;76;21346;-61
2022/08/27 01:13:21;;;;;;;12.47;5.30;;;24.20;75.30;;;;;;1866055;76;20364;-61
2022/08/27 01:15:52;;;;;;;10.48;4.47;;;24.30;75.20;;;;;;1865958;75;21090;-61
2022/08/27 01:18:21;;;;;;;13.15;4.87;;;24.20;75.30;;;;;;1865944;76;21039;-61
2022/08/27 01:20:59;;;;;;;13.08;4.80;;;24.30;75.40;;;;;;1866076;77;21156;-61
2022/08/27 01:23:43;;;;;;;9.80;4.78;;;24.30;75.50;;;;;;1866031;76;21481;-61
2022/08/27 01:26:15;;;;;;;9.70;4.85;;;24.30;75.50;;;;;;1866103;76;21039;-61
2022/08/27 01:28:45;;;;;;;9.25;4.92;;;24.30;75.50;;;;;;1866047;76;21548;-61
2022/08/27 01:31:15;;;;;;;11.33;4.67;;;24.40;75.40;;;;;;1866058;77;21043;-61
2022/08/27 01:33:55;;;;;;;15.10;5.72;;;24.40;75.40;;;;;;1866038;77;21038;-61
2022/08/27 01:36:25;;;;;;;15.28;6.33;;;24.30;75.20;;;;;;1865969;77;21470;-61
2022/08/27 01:38:54;;;;;;;10.65;5.37;;;24.30;75.20;;;;;;1865978;76;21015;-61
2022/08/27 01:41:24;;;;;;;12.98;5.03;;;24.20;75.50;;;;;;1866039;76;21410;-61
2022/08/27 01:43:54;;;;;;;9.38;4.37;;;24.10;75.70;;;;;;1866040;77;21090;-61
2022/08/27 01:46:25;;;;;;;12.37;5.15;;;23.90;75.70;;;;;;1866016;77;21074;-61
2022/08/27 01:48:54;;;;;;;12.35;5.08;;;23.90;76.60;;;;;;1865974;77;21043;-61
2022/08/27 01:51:24;;;;;;;13.65;4.87;;;23.70;76.10;;;;;;1865937;76;21022;-61
2022/08/27 01:53:53;;;;;;;13.53;5.05;;;23.70;76.40;;;;;;1865951;77;21113;-61
2022/08/27 01:56:24;;;;;;;10.85;4.95;;;23.60;76.80;;;;;;1865986;77;21118;-61
2022/08/27 01:58:53;;;;;;;7.25;4.33;;;23.70;77.00;;;;;;1866034;75;21570;-61
2022/08/27 02:01:22;;;;;;;15.18;5.60;;;23.70;76.40;;;;;;1866710;77;21494;-61
2022/08/27 02:03:52;;;;;;;10.13;5.05;;;23.60;76.50;;;;;;1866857;77;21067;-61
2022/08/27 02:06:21;;;;;;;8.83;4.90;;;23.60;76.50;;;;;;1834255;78;21088;-61
2022/08/27 02:08:50;;;;;;;8.90;4.45;;;23.60;76.90;;;;;;1866914;77;21049;-61
2022/08/27 02:11:19;;;;;;;7.95;4.33;;;23.60;77.10;;;;;;1866821;77;21021;-61
2022/08/27 02:13:49;;;;;;;11.85;4.75;;;23.60;77.30;;;;;;1866963;77;21388;-61
2022/08/27 02:16:19;;;;;;;8.65;4.40;;;23.70;77.50;;;;;;1866835;77;21017;-61
2022/08/27 02:18:48;;;;;;;12.03;4.90;;;23.70;77.50;;;;;;1866812;77;21045;-61
2022/08/27 02:21:17;;;;;;;15.85;5.05;;;23.80;77.30;;;;;;1866950;77;21025;-61
2022/08/27 02:23:47;;;;;;;10.72;5.47;;;23.80;77.30;;;;;;1866832;77;21009;-61
2022/08/27 02:26:16;;;;;;;10.48;4.40;;;23.90;77.30;;;;;;1866836;77;21087;-61
2022/08/27 02:28:46;;;;;;;11.90;4.80;;;23.90;77.30;;;;;;1866760;77;21083;-61
2022/08/27 02:31:17;;;;;;;7.97;4.65;;;24.00;77.20;;;;;;1866962;77;21017;-61
2022/08/27 02:33:47;;;;;;;11.00;4.72;;;24.00;76.90;;;;;;1866971;77;21439;-61
2022/08/27 02:36:17;;;;;;;9.75;4.80;;;23.90;77.00;;;;;;1866936;77;21029;-61
2022/08/27 02:38:46;;;;;;;11.63;4.85;;;23.90;78.00;;;;;;1866871;77;20997;-61
2022/08/27 02:41:15;;;;;;;15.70;5.03;;;23.90;77.80;;;;;;1866831;77;21024;-61
2022/08/27 02:43:45;;;;;;;14.23;5.12;;;23.90;77.90;;;;;;1866838;77;21018;-61
2022/08/27 02:46:15;;;;;;;12.50;5.22;;;23.90;77.80;;;;;;1866924;77;21146;-61
2022/08/27 02:48:45;;;;;;;13.18;5.22;;;24.00;77.70;;;;;;1866803;77;21086;-61
2022/08/27 02:51:14;;;;;;;12.65;5.22;;;24.10;77.70;;;;;;1866921;77;21053;-61
2022/08/27 02:53:43;;;;;;;9.55;4.78;;;24.00;77.60;;;;;;1866944;77;21016;-61
2022/08/27 02:56:13;;;;;;;15.23;5.17;;;23.90;77.80;;;;;;1866889;77;21094;-61
2022/08/27 02:58:42;;;;;;;10.43;4.83;;;23.90;78.10;;;;;;1866781;77;21448;-61
2022/08/27 03:01:12;;;;;;;14.47;5.40;;;23.90;78.10;;;;;;1863123;76;21123;-61
2022/08/27 03:03:41;;;;;;;14.15;5.83;;;24.00;78.10;;;;;;1877175;76;21115;-61
2022/08/27 03:06:11;;;;;;;10.18;4.53;;;24.00;78.00;;;;;;1877253;76;21080;-60
2022/08/27 03:08:40;;;;;;;12.78;5.28;;;24.10;78.00;;;;;;1877092;76;21077;-61
2022/08/27 03:11:11;;;;;;;12.07;4.97;;;24.10;78.00;;;;;;1877259;76;21019;-61
2022/08/27 03:13:41;;;;;;;16.05;5.17;;;24.10;77.90;;;;;;1877240;76;21030;-60
2022/08/27 03:16:10;;;;;;;21.95;9.50;;;24.20;78.20;;;;;;1877232;76;21035;-61
2022/08/27 03:18:40;;;;;;;20.17;8.23;;;24.20;77.80;;;;;;1877092;76;21011;-61
2022/08/27 03:21:12;;;;;;;16.80;7.10;;;24.20;77.60;;;;;;1877122;76;21081;-61
2022/08/27 03:23:41;;;;;;;18.98;6.87;;;24.20;77.80;;;;;;1876926;76;21106;-60
2022/08/27 03:26:12;;;;;;;21.60;7.05;;;24.20;77.90;;;;;;1877120;76;21080;-60
2022/08/27 03:28:41;;;;;;;33.45;8.50;;;24.20;77.90;;;;;;1877077;76;21013;-60
2022/08/27 03:31:16;;;;;;;15.15;7.03;;;24.30;77.90;;;;;;1877194;76;21026;-60
2022/08/27 03:33:45;;;;;;;14.20;5.78;;;24.30;78.00;;;;;;1877247;76;21003;-60
2022/08/27 03:36:15;;;;;;;11.80;5.37;;;24.40;78.10;;;;;;1877198;76;21026;-60
2022/08/27 03:38:44;;;;;;;15.10;5.40;;;24.40;77.90;;;;;;1877142;76;21089;-60
2022/08/27 03:41:14;;;;;;;12.28;5.50;;;24.40;77.80;;;;;;1877135;76;21094;-61
2022/08/27 03:43:44;;;;;;;11.33;5.80;;;24.40;78.00;;;;;;1877141;76;21006;-61
2022/08/27 03:46:13;;;;;;;13.55;6.08;;;24.40;78.00;;;;;;1877269;76;21105;-61
2022/08/27 03:48:43;;;;;;;13.88;5.70;;;24.50;78.10;;;;;;1877142;76;21030;-60
2022/08/27 03:51:13;;;;;;;10.93;6.17;;;24.50;78.00;;;;;;1877184;76;21062;-61
2022/08/27 03:56:38;;;;;;;14.05;7.87;;;24.70;77.70;;;;;;1847777;78;22143;-61
2022/08/27 03:59:07;;;;;;;60.60;34.48;;;24.80;77.50;;;;;;1847584;77;21061;-61
2022/08/27 04:01:37;;;;;;;120.70;64.67;;;25.00;77.30;;;;;;1847617;78;21123;-61
2022/08/27 04:04:06;;;;;;;111.95;60.23;;;25.10;77.10;;;;;;1847490;78;21099;-61
2022/08/27 04:06:36;;;;;;;80.47;51.80;;;25.10;76.90;;;;;;1847502;78;21041;-61
2022/08/27 04:09:05;;;;;;;43.63;26.80;;;25.30;76.90;;;;;;1847528;78;21084;-61
2022/08/27 04:11:35;;;;;;;25.50;12.33;;;25.40;76.70;;;;;;1847566;78;21077;-61
2022/08/27 04:14:06;;;;;;;10.68;5.45;;;25.50;76.70;;;;;;1847597;78;21460;-61
2022/08/27 04:16:35;;;;;;;7.85;4.30;;;25.50;76.30;;;;;;1847590;78;21076;-61
2022/08/27 04:19:05;;;;;;;8.10;4.70;;;25.40;76.10;;;;;;1847615;77;21075;-61
2022/08/27 04:21:35;;;;;;;11.08;4.70;;;25.40;76.20;;;;;;1847342;78;21045;-61
2022/08/27 04:24:04;;;;;;;7.97;5.58;;;25.40;76.20;;;;;;1847588;78;21095;-61
2022/08/27 04:26:34;;;;;;;18.92;7.08;;;25.40;76.20;;;;;;1847572;78;21103;-61
2022/08/27 04:29:03;;;;;;;19.37;9.13;;;25.50;76.30;;;;;;1847585;78;21069;-61
2022/08/27 04:31:34;;;;;;;14.95;5.50;;;25.50;76.10;;;;;;1847580;78;21111;-60
2022/08/27 04:34:06;;;;;;;11.65;4.67;;;25.50;76.00;;;;;;1847591;78;21017;-60
2022/08/27 04:36:34;;;;;;;14.70;4.70;;;25.60;76.60;;;;;;1847465;77;21017;-60
2022/08/27 04:39:03;;;;;;;32.95;17.73;;;25.70;76.00;;;;;;1847568;78;21428;-60
2022/08/27 04:41:33;;;;;;;9.23;5.30;;;25.80;75.90;;;;;;1847562;78;21095;-61
2022/08/27 04:44:10;;;;;;;12.58;5.28;;;25.90;75.90;;;;;;1847593;78;21037;-61
2022/08/27 04:46:40;;;;;;;12.80;4.65;;;25.90;75.90;;;;;;1847485;78;21119;-60
2022/08/27 04:49:12;;;;;;;9.95;4.70;;;26.10;76.00;;;;;;1847491;78;21058;-60
2022/08/27 04:51:41;;;;;;;14.13;4.67;;;26.10;75.90;;;;;;1847515;78;21115;-60
2022/08/27 04:54:11;;;;;;;12.80;4.62;;;26.20;75.80;;;;;;1847569;78;21045;-60
2022/08/27 04:56:40;;;;;;;15.15;4.33;;;26.30;75.70;;;;;;1847690;77;21116;-60
2022/08/27 04:59:10;;;;;;;10.88;4.30;;;26.40;75.70;;;;;;1847497;78;21111;-60
2022/08/27 05:01:41;;;;;;;9.53;4.25;;;26.40;75.70;;;;;;1847560;78;21171;-60
2022/08/27 05:04:13;;;;;;;19.10;4.85;;;26.50;75.80;;;;;;1847670;78;21061;-61
2022/08/27 05:06:44;;;;;;;20.55;7.00;;;26.60;75.90;;;;;;1847422;78;21103;-60
2022/08/27 05:09:14;;;;;;;14.03;4.92;;;26.60;75.90;;;;;;1847529;78;21005;-60
2022/08/27 05:11:45;;;;;;;22.58;12.53;;;26.70;75.90;;;;;;1847566;78;21025;-60
2022/08/27 05:14:16;;;;;;;15.55;5.70;;;26.70;75.90;;;;;;1847539;78;21045;-60
2022/08/27 05:16:46;;;;;;;20.85;5.78;;;26.80;76.10;;;;;;1847605;78;21025;-60
2022/08/27 05:19:15;;;;;;;7.40;4.67;;;26.90;76.10;;;;;;1847564;78;21191;-60
2022/08/27 05:21:48;;;;;;;11.80;4.33;;;26.90;76.30;;;;;;1847499;78;21034;-60
2022/08/27 05:24:18;;;;;;;14.68;5.62;;;27.00;76.30;;;;;;1847548;78;21153;-60
2022/08/27 05:26:47;;;;;;;11.93;5.37;;;27.00;76.30;;;;;;1847493;78;21038;-60
2022/08/27 05:29:17;;;;;;;14.33;5.30;;;27.00;76.30;;;;;;1847603;78;21038;-60
2022/08/27 05:31:47;;;;;;;17.73;5.97;;;27.10;76.30;;;;;;1847517;78;21029;-60
2022/08/27 05:34:16;;;;;;;16.07;4.97;;;27.10;76.40;;;;;;1847723;78;21503;-60
2022/08/27 05:36:46;;;;;;;14.47;5.55;;;27.20;76.60;;;;;;1847675;78;21029;-60
2022/08/27 05:39:16;;;;;;;9.78;4.78;;;27.30;76.50;;;;;;1847751;78;21138;-60
2022/08/27 05:41:45;;;;;;;12.88;5.05;;;27.30;76.30;;;;;;1847614;78;21085;-60
2022/08/27 05:44:16;;;;;;;15.60;5.90;;;27.40;76.40;;;;;;1847655;78;21010;-60
2022/08/27 05:46:45;;;;;;;15.85;6.35;;;27.50;76.30;;;;;;1847706;78;21334;-60
2022/08/27 05:49:15;;;;;;;20.57;7.05;;;27.50;76.30;;;;;;1847720;78;21121;-60
2022/08/27 05:51:44;;;;;;;25.48;7.70;;;27.50;76.30;;;;;;1847601;78;21103;-60
2022/08/27 05:54:18;;;;;;;13.83;6.37;;;27.60;76.30;;;;;;1847712;78;21045;-60
2022/08/27 05:56:51;;;;;;;15.97;6.07;;;27.60;76.10;;;;;;1848140;77;21130;-59
2022/08/27 06:02:08;;;;;;;16.73;7.95;;;27.90;75.90;;;;;;1847513;78;21045;-59
2022/08/27 06:04:38;;;;;;;21.55;6.12;;;28.00;75.60;;;;;;1847463;78;21111;-60
2022/08/27 06:07:08;;;;;;;15.13;5.22;;;28.10;75.20;;;;;;1847512;78;21116;-60
2022/08/27 06:09:39;;;;;;;12.90;5.55;;;28.20;74.80;;;;;;1847596;78;21061;-60
2022/08/27 06:12:08;;;;;;;15.98;5.00;;;28.20;74.30;;;;;;1847393;78;21097;-60
2022/08/27 06:14:38;;;;;;;13.65;4.95;;;28.30;73.90;;;;;;1847560;78;21107;-60
2022/08/27 06:17:07;;;;;;;11.70;4.05;;;28.40;73.50;;;;;;1847634;78;21041;-60
2022/08/27 06:19:36;;;;;;;15.55;4.67;;;28.50;72.70;;;;;;1847562;78;21045;-60
2022/08/27 06:22:06;;;;;;;11.33;4.28;;;28.60;72.20;;;;;;1847487;78;21192;-59
2022/08/27 06:24:35;;;;;;;9.83;4.00;;;28.60;71.70;;;;;;1847707;78;21021;-59
2022/08/27 06:27:05;;;;;;;9.88;3.90;;;28.60;71.50;;;;;;1847500;78;21045;-59
2022/08/27 06:29:34;;;;;;;17.25;5.58;;;28.70;71.60;;;;;;1847716;78;21037;-59
2022/08/27 06:32:04;;;;;;;12.47;5.03;;;28.80;71.60;;;;;;1847389;78;21046;-59
2022/08/27 06:34:34;;;;;;;12.82;5.03;;;28.90;71.70;;;;;;1847531;78;21041;-59
2022/08/27 06:37:03;;;;;;;10.03;3.90;;;28.90;71.60;;;;;;1847408;78;21092;-59
2022/08/27 06:39:34;;;;;;;9.73;3.85;;;29.00;71.40;;;;;;1847578;78;21041;-59
2022/08/27 06:42:05;;;;;;;12.70;5.00;;;29.00;71.30;;;;;;1847594;78;21057;-60
2022/08/27 06:44:34;;;;;;;12.95;4.25;;;29.10;71.30;;;;;;1847548;78;21045;-60
2022/08/27 06:47:04;;;;;;;10.28;3.90;;;29.20;70.90;;;;;;1847542;78;21037;-60
2022/08/27 06:49:33;;;;;;;11.40;4.47;;;29.20;70.70;;;;;;1847541;78;21096;-60
2022/08/27 06:52:02;;;;;;;10.80;5.28;;;29.30;70.50;;;;;;1847671;78;21042;-60
2022/08/27 06:54:32;;;;;;;14.60;4.55;;;29.30;70.50;;;;;;1847600;78;21041;-60
2022/08/27 06:57:01;;;;;;;8.43;4.65;;;29.30;70.50;;;;;;1847653;77;21057;-60
2022/08/27 06:59:31;;;;;;;7.87;3.72;;;29.30;70.60;;;;;;1847591;78;21046;-60
2022/08/27 07:02:00;;;;;;;8.23;3.90;;;29.30;70.70;;;;;;1847533;78;21045;-60
2022/08/27 07:04:30;;;;;;;8.33;4.50;;;29.30;71.00;;;;;;1847614;78;21099;-60
2022/08/27 07:06:59;;;;;;;14.07;4.55;;;29.30;71.20;;;;;;1847772;78;21005;-60
2022/08/27 07:09:31;;;;;;;12.13;4.78;;;29.30;71.40;;;;;;1847679;78;21061;-60
2022/08/27 07:12:01;;;;;;;12.07;4.97;;;29.30;71.50;;;;;;1847520;78;21554;-60
2022/08/27 07:14:31;;;;;;;12.25;5.25;;;29.30;71.60;;;;;;1847542;78;21041;-60
2022/08/27 07:17:00;;;;;;;19.23;6.47;;;29.30;71.80;;;;;;1847549;78;21107;-60
2022/08/27 07:19:31;;;;;;;15.32;5.40;;;29.40;72.00;;;;;;1847657;78;21111;-60
2022/08/27 07:22:00;;;;;;;12.93;4.67;;;29.40;72.00;;;;;;1847672;78;21037;-60
2022/08/27 07:24:29;;;;;;;10.65;4.37;;;29.60;72.00;;;;;;1847554;78;21099;-60
2022/08/27 07:26:59;;;;;;;8.83;3.90;;;29.70;71.60;;;;;;1847537;78;21037;-60
2022/08/27 07:29:28;;;;;;;8.83;4.53;;;29.90;71.20;;;;;;1847619;78;21130;-60
2022/08/27 07:31:58;;;;;;;12.50;4.65;;;30.00;70.80;;;;;;1847460;78;21045;-60
2022/08/27 07:34:28;;;;;;;14.15;5.42;;;30.00;70.50;;;;;;1847629;78;21134;-60
2022/08/27 07:36:57;;;;;;;10.40;4.65;;;30.20;70.20;;;;;;1847522;78;21127;-60
2022/08/27 07:39:27;;;;;;;13.38;4.92;;;30.20;69.70;;;;;;1847476;78;21088;-60
2022/08/27 07:44:47;;;;;;;14.40;4.65;;;30.40;69.00;;;;;;1847583;78;21117;-60
2022/08/27 07:47:16;;;;;;;11.10;4.42;;;30.60;68.80;;;;;;1847465;78;21312;-60
2022/08/27 07:49:46;;;;;;;13.68;4.87;;;30.70;68.00;;;;;;1847369;78;21045;-60
2022/08/27 07:52:16;;;;;;;9.08;4.40;;;30.80;67.50;;;;;;1847550;78;21045;-60
2022/08/27 07:54:46;;;;;;;11.48;4.15;;;30.80;67.30;;;;;;1847539;78;21018;-60
2022/08/27 07:57:15;;;;;;;15.63;5.10;;;30.80;66.90;;;;;;1843691;76;21081;-59
2022/08/27 07:59:44;;;;;;;18.35;5.37;;;30.90;66.70;;;;;;1835423;78;21038;-60
2022/08/27 08:02:14;;;;;;;12.60;5.10;;;30.90;66.40;;;;;;1835418;78;21022;-60
2022/08/27 08:04:43;;;;;;;8.95;4.10;;;30.90;66.40;;;;;;1835562;78;21062;-60
2022/08/27 08:07:13;;;;;;;11.33;4.42;;;31.00;66.20;;;;;;1835563;78;21031;-59
2022/08/27 08:09:42;;;;;;;10.23;4.67;;;31.10;65.80;;;;;;1835553;78;21078;-59
2022/08/27 08:15:02;;;;;;;12.80;4.80;;;31.10;65.80;;;;;;1954716;72;21060;-60
2022/08/27 08:17:33;;;;;;;15.70;10.58;;;31.30;65.70;;;;;;1962415;73;21048;-59
2022/08/27 08:20:04;;;;;;;11.03;4.28;;;31.40;65.50;;;;;;1962337;72;21040;-59
2022/08/27 08:22:34;;;;;;;24.18;5.00;;;31.50;65.10;;;;;;1962139;72;21074;-59
2022/08/27 08:25:05;;;;;;;9.28;4.08;;;31.60;64.80;;;;;;1962298;72;21078;-59
2022/08/27 08:27:34;;;;;;;8.70;4.67;;;31.70;64.70;;;;;;1962177;72;21517;-59
2022/08/27 08:30:04;;;;;;;15.35;5.20;;;31.80;64.90;;;;;;1962198;72;21078;-59
2022/08/27 08:32:33;;;;;;;6.97;4.22;;;31.80;64.90;;;;;;1962299;73;21012;-59
2022/08/27 08:35:04;;;;;;;9.68;4.50;;;31.90;64.90;;;;;;1962254;72;21012;-59
2022/08/27 08:37:33;;;;;;;14.80;5.03;;;31.90;64.50;;;;;;1962465;72;21016;-59
2022/08/27 08:40:03;;;;;;;15.00;5.00;;;32.00;64.30;;;;;;1962464;72;20992;-60
2022/08/27 08:42:35;;;;;;;16.52;5.03;;;32.00;64.10;;;;;;1962333;73;21121;-59
2022/08/27 08:45:06;;;;;;;8.68;4.28;;;31.90;64.30;;;;;;1961411;73;21482;-59
2022/08/27 08:47:44;;;;;;;11.93;4.42;;;31.90;64.20;;;;;;1962273;72;21013;-60
2022/08/27 08:50:25;;;;;;;15.55;5.10;;;31.80;64.40;;;;;;1962194;73;21089;-59
2022/08/27 08:53:06;;;;;;;7.83;4.35;;;31.80;64.60;;;;;;1960788;73;21145;-60
2022/08/27 08:55:50;;;;;;;9.05;4.90;;;31.80;64.40;;;;;;1962284;73;21070;-60
2022/08/27 08:58:39;;;;;;;12.28;4.50;;;31.70;64.30;;;;;;1962339;73;21455;-60
2022/08/27 09:01:09;;;;;;;17.85;4.55;;;31.70;64.20;;;;;;1961862;73;21008;-59
2022/08/27 09:03:40;;;;;;;9.43;4.08;;;31.60;64.60;;;;;;1962401;73;21000;-59
2022/08/27 09:06:12;;;;;;;9.18;4.30;;;31.60;64.50;;;;;;1962374;72;20993;-59
2022/08/27 09:08:42;;;;;;;14.07;4.45;;;31.70;64.00;;;;;;1962233;72;21498;-59
2022/08/27 09:11:23;;;;;;;11.28;3.90;;;31.80;64.20;;;;;;1962422;72;21008;-60
2022/08/27 09:14:01;;;;;;;17.50;5.35;;;31.80;64.10;;;;;;1961518;72;21098;-60
2022/08/27 09:16:31;;;;;;;12.78;4.30;;;31.80;63.30;;;;;;1955753;73;21064;-59
2022/08/27 09:19:02;;;;;;;8.75;3.80;;;31.80;63.10;;;;;;1958685;73;21008;-59
2022/08/27 09:21:37;;;;;;;11.22;4.37;;;31.90;63.10;;;;;;1958763;73;21012;-59
2022/08/27 09:24:25;;;;;;;11.97;5.50;;;32.00;63.10;;;;;;1958713;73;21119;-59
2022/08/27 09:26:55;;;;;;;14.83;4.85;;;32.10;62.70;;;;;;1958695;73;21067;-59
2022/08/27 09:29:27;;;;;;;7.92;4.83;;;32.10;62.00;;;;;;1958858;73;21039;-59
2022/08/27 09:32:02;;;;;;;10.53;4.30;;;32.20;61.40;;;;;;1958759;73;21004;-59
2022/08/27 09:34:39;;;;;;;8.93;3.90;;;32.30;61.00;;;;;;1958905;73;21029;-58
2022/08/27 09:37:19;;;;;;;8.18;4.60;;;32.30;61.00;;;;;;1958899;73;21001;-59
2022/08/27 09:40:08;;;;;;;12.15;4.62;;;32.30;61.60;;;;;;1947340;73;21009;-59
2022/08/27 09:42:45;;;;;;;11.97;4.45;;;32.40;60.80;;;;;;1957293;73;21036;-59
2022/08/27 09:45:20;;;;;;;8.68;4.12;;;32.50;60.10;;;;;;1958899;73;21087;-59
2022/08/27 09:47:55;;;;;;;9.53;3.83;;;32.50;59.50;;;;;;1958870;73;21001;-59
2022/08/27 09:50:27;;;;;;;7.22;3.95;;;32.60;59.00;;;;;;1958744;73;20993;-59
2022/08/27 09:52:58;;;;;;;11.08;4.37;;;32.70;58.70;;;;;;1956324;73;21086;-59
2022/08/27 09:55:36;;;;;;;10.72;3.98;;;32.80;58.40;;;;;;1958748;73;21086;-58
2022/08/27 09:58:07;;;;;;;11.22;3.50;;;32.90;58.00;;;;;;1956011;73;21514;-58
2022/08/27 10:00:39;;;;;;;10.03;4.97;;;32.90;58.00;;;;;;1958923;73;21118;-58
2022/08/27 10:03:10;;;;;;;7.47;3.92;;;33.00;58.00;;;;;;1958766;73;20989;-59
2022/08/27 10:05:45;;;;;;;10.50;4.25;;;33.10;57.70;;;;;;1958720;73;21021;-59
2022/08/27 10:08:41;;;;;;;10.68;4.08;;;33.20;57.50;;;;;;1958728;73;21074;-59
2022/08/27 10:11:33;;;;;;;9.48;4.53;;;33.20;57.40;;;;;;1958680;73;21066;-59
2022/08/27 10:14:23;;;;;;;8.38;3.75;;;33.30;57.30;;;;;;1958518;73;21100;-58
2022/08/27 10:17:08;;;;;;;9.88;4.00;;;33.30;57.50;;;;;;1957831;73;21130;-60
2022/08/27 10:19:49;;;;;;;7.47;3.67;;;33.30;58.00;;;;;;1958168;73;21048;-60
2022/08/27 10:22:30;;;;;;;9.90;4.45;;;33.30;57.90;;;;;;1957118;73;21078;-60
2022/08/27 10:25:08;;;;;;;13.15;4.00;;;33.20;58.10;;;;;;1957951;73;21110;-60
2022/08/27 10:27:53;;;;;;;12.45;3.67;;;33.10;58.20;;;;;;1958633;73;21514;-60
2022/08/27 10:30:24;;;;;;;;;;;33.10;58.10;;;;;;1960926;73;21608;-60
2022/08/27 10:33:04;;;;;;;10.25;3.92;;;32.90;58.60;;;;;;1895696;75;20167;-60
2022/08/27 10:35:51;;;;;;;8.00;3.75;;;32.90;59.10;;;;;;1898729;74;21457;-60
2022/08/27 10:38:26;;;;;;;16.95;4.97;;;32.90;59.20;;;;;;1973982;72;21000;-60
2022/08/27 10:41:03;;;;;;;23.10;13.48;;;32.80;59.70;;;;;;1974987;73;21004;-59
2022/08/27 10:43:51;;;;;;;14.70;7.20;;;32.80;60.10;;;;;;1933049;74;21136;-59
2022/08/27 10:46:42;;;;;;;11.63;4.37;;;32.70;60.60;;;;;;1933289;74;21104;-59
2022/08/27 10:49:22;;;;;;;14.75;5.42;;;32.60;60.90;;;;;;1933225;74;21023;-60
2022/08/27 10:51:57;;;;;;;8.40;4.47;;;32.50;61.20;;;;;;1933265;73;21081;-59
2022/08/27 10:54:32;;;;;;;10.53;3.98;;;32.50;61.40;;;;;;1933134;73;21109;-59
2022/08/27 10:57:10;;;;;;;12.33;4.62;;;32.40;61.60;;;;;;1933148;73;21410;-59
2022/08/27 10:59:57;;;;;;;9.90;3.75;;;32.40;61.70;;;;;;1932054;73;21582;-59
2022/08/27 11:02:38;;;;;;;6.95;3.83;;;32.40;61.80;;;;;;1932093;73;21026;-59
2022/08/27 11:05:19;;;;;;;8.33;3.92;;;32.40;61.80;;;;;;1933123;74;21536;-59
2022/08/27 11:07:51;;;;;;;15.55;5.62;;;32.30;61.80;;;;;;1887439;74;21031;-58
2022/08/27 11:10:24;;;;;;;7.55;4.37;;;32.40;62.00;;;;;;1933064;74;21051;-59
2022/08/27 11:12:56;;;;;;;8.75;4.22;;;32.40;62.00;;;;;;1933319;73;21075;-59
2022/08/27 11:15:28;;;;;;;11.22;4.17;;;32.40;61.80;;;;;;1932954;74;21054;-59
2022/08/27 11:18:24;;;;;;;9.10;3.95;;;32.50;61.80;;;;;;1933007;74;21497;-59
2022/08/27 11:21:01;;;;;;;6.62;3.67;;;32.40;61.70;;;;;;1917933;73;21128;-59
2022/08/27 11:23:45;;;;;;;9.23;3.90;;;32.50;61.70;;;;;;1933075;73;21410;-59
2022/08/27 11:26:15;;;;;;;8.45;3.55;;;32.60;61.70;;;;;;1931308;73;21445;-59
2022/08/27 11:28:57;;;;;;;14.90;4.62;;;32.70;61.60;;;;;;1933222;73;21102;-59
2022/08/27 11:31:46;;;;;;;13.53;4.28;;;32.80;61.30;;;;;;1932738;73;21007;-59
2022/08/27 11:34:43;;;;;;;10.63;3.77;;;32.90;61.00;;;;;;1928827;74;21128;-59
2022/08/27 11:37:30;;;;;;;;;;;33.00;60.70;;;;;;1902182;74;21092;-59
2022/08/27 11:40:17;;;;;;;9.18;3.70;;;33.10;60.40;;;;;;1958324;73;20104;-58
2022/08/27 11:42:50;;;;;;;12.55;3.72;;;33.10;60.60;;;;;;1957395;73;21452;-57
2022/08/27 11:45:29;;;;;;;9.48;4.60;;;33.20;60.60;;;;;;1958595;73;21008;-57
2022/08/27 11:48:01;;;;;;;9.35;4.15;;;33.30;60.40;;;;;;1958410;73;21465;-57
2022/08/27 11:50:31;;;;;;;13.95;4.12;;;33.30;60.00;;;;;;1953546;73;21458;-57
2022/08/27 11:53:05;;;;;;;12.65;4.28;;;33.40;59.90;;;;;;1958460;73;21109;-58
2022/08/27 11:55:37;;;;;;;17.60;5.58;;;33.40;59.80;;;;;;1958491;73;21419;-58
2022/08/27 11:58:22;;;;;;;10.13;3.95;;;33.40;59.70;;;;;;1958450;73;20976;-58
2022/08/27 12:00:54;;;;;;;13.40;4.37;;;33.40;59.60;;;;;;1958565;73;21019;-58
2022/08/27 12:03:26;;;;;;;10.38;4.08;;;33.30;59.60;;;;;;1958627;73;21065;-58
2022/08/27 12:05:58;;;;;;;16.30;5.00;;;33.30;59.80;;;;;;1958599;73;21039;-59
2022/08/27 12:08:30;;;;;;;9.30;4.55;;;33.30;59.70;;;;;;1958631;73;21457;-60
2022/08/27 12:11:20;;;;;;;8.18;3.90;;;33.40;59.60;;;;;;1958556;73;21020;-58
2022/08/27 12:14:01;;;;;;;9.58;4.92;;;33.50;59.60;;;;;;1958643;73;20995;-58
2022/08/27 12:16:35;;;;;;;9.93;4.58;;;33.50;59.30;;;;;;1958493;73;21035;-58
2022/08/27 12:19:08;;;;;;;11.73;4.85;;;33.50;59.00;;;;;;1958416;73;21118;-58
2022/08/27 12:21:56;;;;;;;9.48;3.77;;;33.50;58.70;;;;;;1874211;73;21474;-58
2022/08/27 12:24:43;;;;;;;10.13;5.10;;;33.40;58.60;;;;;;1949109;73;21011;-58
2022/08/27 12:27:27;;;;;;;10.25;4.53;;;33.40;58.40;;;;;;1958000;73;21011;-58
2022/08/27 12:30:08;;;;;;;12.30;4.83;;;33.30;58.20;;;;;;1958459;73;21419;-58
2022/08/27 12:32:40;;;;;;;8.13;4.25;;;33.20;58.50;;;;;;1956243;73;21090;-58
2022/08/27 12:35:12;;;;;;;16.45;6.28;;;33.10;58.40;;;;;;1958375;73;21398;-58
2022/08/27 12:37:50;;;;;;;14.80;4.55;;;33.10;58.40;;;;;;1958364;73;21430;-58
2022/08/27 12:40:31;;;;;;;13.62;4.95;;;33.10;58.60;;;;;;1958297;73;21114;-58
2022/08/27 12:43:09;;;;;;;13.08;4.60;;;33.00;58.60;;;;;;1957338;73;21090;-59
2022/08/27 12:45:47;;;;;;;7.80;4.25;;;33.00;58.70;;;;;;1958115;73;21145;-59
2022/08/27 12:48:19;;;;;;;11.80;4.22;;;32.90;58.90;;;;;;1957524;73;21556;-59
2022/08/27 12:50:53;;;;;;;11.95;5.03;;;32.90;58.80;;;;;;1956281;73;21547;-59
2022/08/27 12:53:25;;;;;;;10.32;4.42;;;32.90;58.90;;;;;;1958444;73;21073;-60
2022/08/27 12:56:14;;;;;;;9.15;4.75;;;32.90;58.90;;;;;;1958379;73;21015;-59
2022/08/27 12:58:49;;;;;;;16.85;4.75;;;32.90;59.00;;;;;;1958342;73;21031;-59
2022/08/27 13:01:40;;;;;;;10.43;5.17;;;32.80;58.50;;;;;;1958508;73;21055;-59
2022/08/27 13:04:24;;;;;;;14.03;4.62;;;32.80;58.20;;;;;;1958342;73;21113;-59
2022/08/27 13:06:54;;;;;;;14.67;4.90;;;32.70;58.00;;;;;;1958652;73;21496;-59
2022/08/27 13:09:32;;;;;;;17.35;5.17;;;32.80;58.10;;;;;;1958353;73;20996;-59
2022/08/27 13:12:03;;;;;;;11.48;4.22;;;32.80;58.00;;;;;;1958250;73;21016;-59
2022/08/27 13:14:38;;;;;;;15.53;4.80;;;32.80;57.80;;;;;;1958349;73;21027;-59
2022/08/27 13:17:11;;;;;;;15.10;4.67;;;32.90;57.40;;;;;;1958526;73;21093;-58
2022/08/27 13:19:58;;;;;;;14.18;4.75;;;32.90;57.30;;;;;;1958406;73;21105;-59